createdAt,value
2022-10-23T00:01:45.680Z,9.03
2022-10-23T00:04:15.491Z,9.00
2022-10-23T00:06:43.124Z,9.97
2022-10-23T00:09:12.708Z,10.00
2022-10-23T00:11:41.405Z,8.80
2022-10-23T00:14:08.312Z,8.70
2022-10-23T00:16:35.149Z,9.07
2022-10-23T00:19:01.928Z,8.80
2022-10-23T00:21:28.690Z,9.23
2022-10-23T00:23:55.555Z,8.73
2022-10-23T00:26:22.570Z,9.20
2022-10-23T00:28:51.768Z,9.00
2022-10-23T00:31:20.804Z,9.63
2022-10-23T00:33:48.045Z,8.10
2022-10-23T00:36:17.078Z,8.80
2022-10-23T00:38:44.546Z,9.00
2022-10-23T00:41:22.853Z,9.73
2022-10-23T00:44:04.031Z,9.07
2022-10-23T00:46:31.426Z,9.63
2022-10-23T00:48:59.345Z,9.20
2022-10-23T00:51:29.926Z,9.20
2022-10-23T00:54:06.525Z,9.53
2022-10-23T00:56:46.732Z,9.30
2022-10-23T00:59:13.980Z,9.70
2022-10-23T01:01:41.547Z,10.70
2022-10-23T01:04:08.735Z,9.83
2022-10-23T01:06:37.772Z,9.47
2022-10-23T01:09:25.394Z,9.20
2022-10-23T01:12:01.010Z,8.90
2022-10-23T01:14:46.440Z,9.27
2022-10-23T01:17:21.057Z,8.80
2022-10-23T01:20:15.572Z,9.97
2022-10-23T01:23:07.454Z,8.20
2022-10-23T01:25:52.855Z,8.97
2022-10-23T01:28:43.292Z,8.57
2022-10-23T01:31:14.750Z,8.90
2022-10-23T01:33:52.481Z,8.93
2022-10-23T01:36:23.868Z,8.83
2022-10-23T01:38:58.933Z,8.87
2022-10-23T01:41:46.370Z,8.47
2022-10-23T01:44:39.788Z,9.23
2022-10-23T01:47:09.005Z,8.60
2022-10-23T01:49:39.248Z,8.93
2022-10-23T01:52:08.524Z,8.30
2022-10-23T01:54:39.432Z,8.80
2022-10-23T01:57:10.175Z,9.20
2022-10-23T01:59:44.365Z,9.00
2022-10-23T02:02:12.844Z,9.23
2022-10-23T02:05:02.275Z,8.13
2022-10-23T02:07:29.985Z,9.07
2022-10-23T02:09:56.756Z,7.73
2022-10-23T02:13:02.876Z,8.83
2022-10-23T02:16:01.403Z,8.53
2022-10-23T02:18:37.980Z,10.10
2022-10-23T02:21:23.781Z,7.77
2022-10-23T02:24:05.500Z,8.17
2022-10-23T02:26:35.045Z,9.20
2022-10-23T02:29:11.999Z,8.93
2022-10-23T02:31:39.029Z,8.77
2022-10-23T02:34:06.071Z,8.30
2022-10-23T02:36:33.066Z,8.70
2022-10-23T02:38:59.906Z,7.83
2022-10-23T02:41:51.663Z,8.13
2022-10-23T02:44:42.927Z,8.23
2022-10-23T02:47:20.131Z,8.10
2022-10-23T02:50:05.586Z,8.73
2022-10-23T02:52:45.342Z,7.97
2022-10-23T02:55:31.712Z,8.13
2022-10-23T02:58:15.675Z,7.70
2022-10-23T03:00:53.848Z,8.40
2022-10-23T03:03:29.838Z,8.17
2022-10-23T03:05:56.873Z,7.73
2022-10-23T03:08:25.075Z,8.10
2022-10-23T03:10:52.004Z,8.10
2022-10-23T03:13:18.787Z,7.93
2022-10-23T03:15:45.519Z,7.27
2022-10-23T03:18:12.322Z,7.93
2022-10-23T03:20:39.036Z,7.60
2022-10-23T03:23:05.761Z,7.27
2022-10-23T03:25:32.515Z,7.90
2022-10-23T03:28:00.227Z,7.73
2022-10-23T03:30:27.185Z,7.50
2022-10-23T03:32:53.888Z,7.63
2022-10-23T03:35:20.670Z,8.17
2022-10-23T03:37:47.417Z,6.67
2022-10-23T03:40:14.264Z,7.47
2022-10-23T03:42:40.977Z,8.00
2022-10-23T03:45:08.213Z,7.57
2022-10-23T03:47:35.564Z,7.67
2022-10-23T03:50:02.260Z,7.53
2022-10-23T03:52:29.022Z,7.63
2022-10-23T03:54:55.717Z,7.23
2022-10-23T03:57:22.532Z,7.17
2022-10-23T03:59:49.218Z,8.20
2022-10-23T04:02:16.068Z,8.00
2022-10-23T04:04:42.781Z,7.80
2022-10-23T04:07:09.644Z,7.70
2022-10-23T04:09:36.418Z,6.97
2022-10-23T04:12:03.395Z,8.57
2022-10-23T04:14:30.282Z,8.33
2022-10-23T04:16:57.048Z,7.63
2022-10-23T04:19:23.792Z,7.37
2022-10-23T04:21:50.498Z,8.33
2022-10-23T04:24:17.186Z,7.43
2022-10-23T04:26:43.907Z,9.50
2022-10-23T04:29:10.607Z,7.37
2022-10-23T04:31:37.371Z,7.90
2022-10-23T04:36:30.784Z,7.80
2022-10-23T04:38:57.561Z,7.23
2022-10-23T04:41:24.430Z,7.07
2022-10-23T04:43:51.184Z,8.30
2022-10-23T04:46:18.085Z,8.17
2022-10-23T04:48:44.771Z,7.20
2022-10-23T04:51:11.616Z,7.33
2022-10-23T04:53:39.059Z,7.33
2022-10-23T04:56:06.442Z,7.40
2022-10-23T04:58:33.159Z,8.07
2022-10-23T05:00:59.990Z,7.93
2022-10-23T05:03:27.057Z,7.53
2022-10-23T05:05:55.853Z,8.23
2022-10-23T05:08:23.565Z,8.10
2022-10-23T05:10:50.810Z,8.33
2022-10-23T05:13:20.005Z,9.40
2022-10-23T05:15:51.925Z,8.10
2022-10-23T05:18:30.199Z,9.50
2022-10-23T05:21:08.602Z,8.77
2022-10-23T05:23:38.432Z,8.53
2022-10-23T05:26:05.488Z,8.90
2022-10-23T05:28:32.408Z,10.07
2022-10-23T05:31:01.007Z,10.57
2022-10-23T05:33:28.133Z,8.37
2022-10-23T05:35:54.952Z,9.60
2022-10-23T05:38:22.214Z,9.03
2022-10-23T05:40:50.894Z,10.13
2022-10-23T05:43:17.667Z,8.47
2022-10-23T05:45:44.412Z,9.33
2022-10-23T05:48:22.772Z,8.53
2022-10-23T05:51:08.244Z,8.20
2022-10-23T05:53:37.426Z,8.30
2022-10-23T05:56:07.899Z,8.70
2022-10-23T05:58:34.785Z,8.67
2022-10-23T06:01:09.208Z,7.93
2022-10-23T06:03:36.988Z,7.93
2022-10-23T06:06:04.100Z,8.00
2022-10-23T06:08:31.725Z,8.23
2022-10-23T06:10:58.614Z,9.00
2022-10-23T06:13:25.368Z,7.73
2022-10-23T06:15:52.065Z,8.20
2022-10-23T06:18:18.938Z,7.97
2022-10-23T06:20:45.727Z,8.43
2022-10-23T06:23:12.477Z,8.20
2022-10-23T06:25:39.165Z,8.03
2022-10-23T06:28:05.906Z,8.27
2022-10-23T06:30:32.705Z,8.03
2022-10-23T06:33:02.138Z,8.20
2022-10-23T06:35:31.321Z,8.27
2022-10-23T06:37:58.022Z,8.07
2022-10-23T06:40:24.749Z,8.23
2022-10-23T06:42:51.456Z,8.47
2022-10-23T06:45:18.196Z,8.93
2022-10-23T06:47:45.327Z,9.30
2022-10-23T06:50:15.323Z,8.87
2022-10-23T06:52:46.880Z,8.97
2022-10-23T06:55:14.871Z,7.70
2022-10-23T06:57:43.144Z,8.40
2022-10-23T07:00:11.174Z,8.07
2022-10-23T07:02:37.907Z,7.47
2022-10-23T07:05:07.679Z,8.07
2022-10-23T07:07:36.752Z,8.83
2022-10-23T07:10:04.724Z,8.10
2022-10-23T07:12:31.496Z,8.27
2022-10-23T07:14:58.202Z,8.10
2022-10-23T07:17:24.944Z,9.37
2022-10-23T07:19:52.181Z,8.60
2022-10-23T07:22:18.913Z,8.40
2022-10-23T07:24:45.632Z,8.40
2022-10-23T07:27:12.371Z,7.77
2022-10-23T07:29:39.315Z,7.53
2022-10-23T07:32:06.287Z,7.77
2022-10-23T07:34:33.384Z,7.33
2022-10-23T07:37:00.197Z,7.43
2022-10-23T07:39:27.009Z,6.90
2022-10-23T07:41:53.724Z,7.27
2022-10-23T07:44:22.090Z,7.17
2022-10-23T07:46:51.099Z,7.70
2022-10-23T07:49:17.848Z,7.40
2022-10-23T07:51:48.997Z,7.87
2022-10-23T07:54:18.666Z,6.67
2022-10-23T07:56:45.516Z,7.37
2022-10-23T07:59:13.337Z,6.30
2022-10-23T08:01:42.989Z,7.33
2022-10-23T08:04:10.726Z,6.77
2022-10-23T08:06:38.318Z,6.50
2022-10-23T08:09:06.727Z,6.57
2022-10-23T08:11:35.813Z,6.67
2022-10-23T08:14:05.863Z,6.80
2022-10-23T08:16:35.106Z,6.67
2022-10-23T08:19:02.446Z,6.30
2022-10-23T08:21:29.495Z,5.63
2022-10-23T08:23:58.140Z,5.87
2022-10-23T08:26:26.135Z,5.80
2022-10-23T08:28:53.331Z,5.97
2022-10-23T08:31:22.010Z,5.40
2022-10-23T08:36:19.566Z,5.70
2022-10-23T08:38:46.965Z,5.10
2022-10-23T08:41:33.435Z,5.37
2022-10-23T08:44:13.337Z,5.90
2022-10-23T08:46:47.180Z,5.63
2022-10-23T08:49:28.170Z,5.37
2022-10-23T08:51:57.568Z,5.10
2022-10-23T08:54:38.988Z,5.43
2022-10-23T08:57:13.286Z,5.13
2022-10-23T08:59:57.638Z,5.03
2022-10-23T09:02:42.375Z,5.90
2022-10-23T09:05:17.014Z,5.67
2022-10-23T09:07:59.617Z,5.43
2022-10-23T09:10:48.140Z,6.43
2022-10-23T09:13:45.082Z,5.30
2022-10-23T09:16:43.272Z,5.30
2022-10-23T09:19:14.797Z,5.40
2022-10-23T09:21:41.996Z,5.13
2022-10-23T09:24:17.960Z,5.73
2022-10-23T09:26:49.502Z,5.50
2022-10-23T09:29:31.858Z,5.33
2022-10-23T09:32:01.296Z,5.37
2022-10-23T09:34:33.024Z,5.37
2022-10-23T09:37:17.198Z,4.53
2022-10-23T09:39:43.906Z,4.70
2022-10-23T09:42:24.772Z,6.57
2022-10-23T09:44:54.246Z,4.90
2022-10-23T09:47:24.402Z,4.60
2022-10-23T09:49:54.243Z,4.27
2022-10-23T09:52:35.756Z,4.87
2022-10-23T09:55:18.276Z,4.90
2022-10-23T09:57:46.499Z,4.97
2022-10-23T10:00:16.825Z,4.73
2022-10-23T10:03:05.188Z,4.57
2022-10-23T10:05:35.322Z,4.10
2022-10-23T10:08:20.760Z,4.13
2022-10-23T10:10:52.411Z,4.03
2022-10-23T10:13:30.820Z,3.90
2022-10-23T10:16:05.846Z,3.97
2022-10-23T10:18:56.796Z,4.13
2022-10-23T10:21:53.129Z,3.67
2022-10-23T10:24:29.978Z,3.60
2022-10-23T10:27:33.505Z,3.87
2022-10-23T10:30:22.284Z,3.97
2022-10-23T10:33:03.130Z,3.50
2022-10-23T10:35:57.886Z,3.57
2022-10-23T10:38:51.440Z,3.33
2022-10-23T10:41:26.977Z,3.23
2022-10-23T10:44:18.000Z,2.83
2022-10-23T10:47:17.121Z,3.17
2022-10-23T10:50:00.316Z,2.90
2022-10-23T10:52:48.317Z,3.07
2022-10-23T10:55:35.897Z,2.47
2022-10-23T10:58:23.762Z,2.80
2022-10-23T11:00:58.614Z,2.80
2022-10-23T11:03:39.830Z,3.37
2022-10-23T11:06:13.335Z,3.47
2022-10-23T11:08:56.225Z,2.77
2022-10-23T11:11:40.683Z,3.43
2022-10-23T11:14:18.734Z,2.97
2022-10-23T11:16:51.890Z,2.90
2022-10-23T11:19:21.335Z,3.93
2022-10-23T11:22:04.744Z,2.73
2022-10-23T11:24:57.990Z,2.43
2022-10-23T11:27:52.877Z,2.63
2022-10-23T11:30:28.575Z,3.27
2022-10-23T11:33:15.632Z,3.50
2022-10-23T11:36:05.871Z,2.30
2022-10-23T11:38:36.025Z,3.00
2022-10-23T11:41:06.704Z,2.30
2022-10-23T11:43:46.769Z,2.83
2022-10-23T11:46:29.630Z,2.50
2022-10-23T11:48:57.013Z,2.67
2022-10-23T11:51:31.818Z,2.37
2022-10-23T11:54:10.463Z,2.73
2022-10-23T11:57:10.367Z,2.30
2022-10-23T11:59:49.662Z,2.50
2022-10-23T12:02:33.523Z,2.90
2022-10-23T12:05:05.785Z,2.60
2022-10-23T12:07:37.193Z,3.20
2022-10-23T12:10:27.239Z,2.47
2022-10-23T12:13:00.881Z,2.90
2022-10-23T12:15:28.452Z,2.70
2022-10-23T12:18:07.577Z,2.83
2022-10-23T12:20:45.694Z,2.87
2022-10-23T12:23:15.168Z,3.20
2022-10-23T12:26:25.172Z,2.80
2022-10-23T12:29:12.036Z,2.80
2022-10-23T12:32:03.440Z,2.80
2022-10-23T12:34:39.051Z,2.43
2022-10-23T12:37:29.272Z,2.53
2022-10-23T12:39:59.028Z,2.57
2022-10-23T12:42:28.400Z,2.90
2022-10-23T12:45:23.984Z,2.70
2022-10-23T12:47:52.315Z,3.27
2022-10-23T12:50:28.302Z,3.33
2022-10-23T12:53:03.462Z,2.70
2022-10-23T12:55:57.152Z,2.67
2022-10-23T12:58:27.222Z,2.60
2022-10-23T13:00:56.622Z,2.30
2022-10-23T13:03:25.900Z,2.60
2022-10-23T13:05:55.637Z,3.10
2022-10-23T13:08:23.418Z,2.30
2022-10-23T13:10:50.723Z,2.13
2022-10-23T13:13:23.251Z,2.30
2022-10-23T13:15:50.176Z,1.97
2022-10-23T13:18:18.313Z,2.10
2022-10-23T13:20:54.180Z,2.30
2022-10-23T13:23:31.775Z,2.63
2022-10-23T13:26:07.374Z,2.17
2022-10-23T13:28:45.208Z,2.13
2022-10-23T13:31:14.911Z,2.23
2022-10-23T13:33:42.915Z,2.43
2022-10-23T13:36:15.332Z,2.07
2022-10-23T13:38:44.552Z,2.30
2022-10-23T13:41:19.486Z,2.87
2022-10-23T13:43:47.749Z,2.20
2022-10-23T13:46:15.700Z,2.43
2022-10-23T13:48:42.516Z,2.20
2022-10-23T13:51:23.840Z,2.07
2022-10-23T13:53:51.214Z,1.83
2022-10-23T13:56:21.145Z,2.37
2022-10-23T13:58:48.816Z,1.93
2022-10-23T14:01:24.317Z,2.10
2022-10-23T14:03:52.575Z,2.10
2022-10-23T14:06:19.868Z,2.80
2022-10-23T14:08:47.003Z,2.47
2022-10-23T14:11:15.951Z,2.20
2022-10-23T14:13:42.803Z,2.00
2022-10-23T14:16:12.794Z,2.27
2022-10-23T14:18:39.985Z,2.17
2022-10-23T14:21:08.249Z,2.37
2022-10-23T14:23:35.041Z,2.37
2022-10-23T14:26:06.512Z,2.33
2022-10-23T14:28:33.444Z,2.60
2022-10-23T14:31:11.553Z,2.50
2022-10-23T14:33:39.342Z,2.00
2022-10-23T14:36:06.702Z,2.10
2022-10-23T14:38:33.626Z,2.00
2022-10-23T14:41:00.528Z,2.00
2022-10-23T14:43:27.268Z,2.00
2022-10-23T14:45:54.100Z,1.70
2022-10-23T14:48:20.820Z,2.87
2022-10-23T14:50:49.654Z,4.20
2022-10-23T14:53:16.990Z,4.97
2022-10-23T14:55:43.759Z,7.50
2022-10-23T14:58:10.492Z,10.97
2022-10-23T15:00:37.278Z,7.50
2022-10-23T15:03:04.133Z,10.53
2022-10-23T15:05:30.872Z,5.20
2022-10-23T15:07:58.967Z,2.90
2022-10-23T15:10:25.744Z,2.50
2022-10-23T15:12:52.498Z,2.73
2022-10-23T15:15:19.294Z,2.10
2022-10-23T15:17:46.020Z,2.60
2022-10-23T15:20:12.883Z,2.20
2022-10-23T15:22:39.767Z,2.10
2022-10-23T15:25:07.209Z,2.23
2022-10-23T15:27:33.960Z,2.20
2022-10-23T15:30:00.661Z,2.77
2022-10-23T15:32:27.623Z,2.27
2022-10-23T15:34:55.108Z,2.40
2022-10-23T15:37:21.887Z,2.33
2022-10-23T15:39:48.753Z,2.50
2022-10-23T15:42:15.576Z,2.63
2022-10-23T15:44:42.318Z,2.40
2022-10-23T15:47:09.055Z,2.73
2022-10-23T15:49:36.884Z,2.13
2022-10-23T15:52:04.908Z,2.20
2022-10-23T15:54:33.089Z,2.70
2022-10-23T15:57:00.651Z,2.30
2022-10-23T15:59:28.348Z,2.10
2022-10-23T16:01:55.966Z,2.37
2022-10-23T16:04:23.200Z,2.40
2022-10-23T16:06:50.324Z,2.60
2022-10-23T16:09:17.489Z,2.20
2022-10-23T16:11:44.745Z,2.20
2022-10-23T16:14:14.213Z,2.57
2022-10-23T16:16:41.151Z,2.97
2022-10-23T16:19:09.261Z,3.93
2022-10-23T16:21:36.820Z,4.00
2022-10-23T16:24:08.492Z,3.67
2022-10-23T16:26:36.550Z,5.67
2022-10-23T16:29:06.019Z,4.73
2022-10-23T16:31:33.170Z,3.47
2022-10-23T16:34:01.868Z,3.10
2022-10-23T16:36:29.204Z,3.10
2022-10-23T16:38:56.046Z,3.00
2022-10-23T16:41:22.794Z,3.40
2022-10-23T16:43:49.943Z,3.40
2022-10-23T16:46:21.464Z,3.00
2022-10-23T16:48:50.211Z,3.33
2022-10-23T16:51:20.073Z,3.17
2022-10-23T16:53:48.139Z,3.70
2022-10-23T16:56:18.031Z,3.70
2022-10-23T16:58:44.930Z,4.30
2022-10-23T17:01:14.711Z,4.20
2022-10-23T17:03:44.251Z,3.50
2022-10-23T17:06:13.076Z,3.50
2022-10-23T17:08:40.706Z,3.27
2022-10-23T17:11:25.812Z,3.80
2022-10-23T17:14:07.632Z,3.57
2022-10-23T17:16:44.573Z,3.33
2022-10-23T17:19:20.642Z,3.20
2022-10-23T17:21:55.929Z,3.60
2022-10-23T17:24:23.513Z,3.37
2022-10-23T17:26:50.376Z,3.67
2022-10-23T17:29:17.290Z,3.17
2022-10-23T17:31:46.860Z,3.63
2022-10-23T17:34:17.230Z,3.70
2022-10-23T17:36:46.872Z,3.50
2022-10-23T17:39:17.269Z,4.40
2022-10-23T17:41:44.822Z,3.90
2022-10-23T17:44:12.143Z,4.30
2022-10-23T17:46:39.073Z,4.10
2022-10-23T17:49:06.192Z,4.73
2022-10-23T17:51:35.116Z,4.17
2022-10-23T17:54:05.972Z,3.60
2022-10-23T17:56:35.179Z,4.43
2022-10-23T17:59:05.027Z,4.00
2022-10-23T18:01:32.078Z,4.47
2022-10-23T18:04:04.145Z,4.43
2022-10-23T18:06:34.036Z,3.80
2022-10-23T18:09:02.708Z,4.37
2022-10-23T18:11:32.045Z,4.13
2022-10-23T18:16:32.860Z,4.10
2022-10-23T18:19:00.656Z,4.30
2022-10-23T18:21:28.037Z,4.73
2022-10-23T18:23:55.132Z,4.07
2022-10-23T18:26:27.921Z,4.40
2022-10-23T18:28:58.379Z,4.27
2022-10-23T18:31:27.526Z,4.70
2022-10-23T18:34:04.960Z,4.60
2022-10-23T18:36:35.593Z,4.93
2022-10-23T18:39:03.970Z,4.37
2022-10-23T18:41:39.563Z,4.83
2022-10-23T18:44:06.861Z,4.10
2022-10-23T18:46:34.183Z,4.63
2022-10-23T18:49:01.047Z,6.60
2022-10-23T18:51:31.231Z,9.40
2022-10-23T18:54:01.399Z,13.03
2022-10-23T18:56:28.206Z,7.33
2022-10-23T18:59:00.103Z,7.03
2022-10-23T19:01:28.312Z,6.03
2022-10-23T19:06:29.742Z,5.50
2022-10-23T19:08:56.908Z,5.30
2022-10-23T19:11:25.170Z,5.73
2022-10-23T19:13:52.015Z,5.20
2022-10-23T19:16:26.056Z,4.77
2022-10-23T19:19:02.457Z,5.13
2022-10-23T19:21:32.913Z,4.50
2022-10-23T19:24:10.806Z,4.87
2022-10-23T19:26:39.590Z,4.13
2022-10-23T19:29:08.774Z,4.07
2022-10-23T19:31:35.784Z,4.50
2022-10-23T19:34:02.642Z,4.27
2022-10-23T19:36:29.450Z,4.50
2022-10-23T19:38:56.183Z,4.67
2022-10-23T19:41:23.252Z,4.20
2022-10-23T19:43:49.995Z,5.40
2022-10-23T19:46:16.949Z,6.00
2022-10-23T19:48:44.974Z,8.20
2022-10-23T19:51:15.741Z,12.33
2022-10-23T19:53:42.946Z,8.73
2022-10-23T19:56:11.732Z,7.20
2022-10-23T19:58:39.626Z,7.20
2022-10-23T20:01:11.882Z,6.20
2022-10-23T20:03:40.381Z,4.90
2022-10-23T20:06:15.679Z,3.53
2022-10-23T20:08:42.645Z,4.27
2022-10-23T20:11:17.849Z,4.50
2022-10-23T20:13:47.689Z,3.87
2022-10-23T20:16:25.491Z,4.00
2022-10-23T20:18:52.455Z,4.47
2022-10-23T20:21:19.963Z,3.60
2022-10-23T20:23:46.866Z,3.57
2022-10-23T20:26:16.485Z,3.70
2022-10-23T20:28:46.908Z,4.13
2022-10-23T20:31:15.824Z,3.47
2022-10-23T20:33:43.065Z,3.27
2022-10-23T20:36:23.770Z,3.83
2022-10-23T20:38:50.668Z,3.80
2022-10-23T20:41:17.495Z,3.60
2022-10-23T20:43:44.232Z,4.03
2022-10-23T20:46:11.656Z,3.53
2022-10-23T20:48:43.466Z,3.73
2022-10-23T20:51:12.990Z,3.80
2022-10-23T20:53:40.716Z,3.60
2022-10-23T20:56:10.951Z,3.80
2022-10-23T20:58:37.716Z,3.50
2022-10-23T21:01:16.883Z,3.33
2022-10-23T21:03:44.809Z,3.13
2022-10-23T21:06:15.911Z,3.23
2022-10-23T21:08:43.145Z,3.60
2022-10-23T21:11:15.357Z,3.27
2022-10-23T21:13:44.133Z,3.80
2022-10-23T21:16:27.658Z,3.70
2022-10-23T21:18:56.826Z,3.77
2022-10-23T21:21:24.370Z,3.03
2022-10-23T21:23:53.366Z,3.40
2022-10-23T21:26:21.791Z,3.60
2022-10-23T21:29:00.952Z,3.63
2022-10-23T21:31:36.953Z,3.90
2022-10-23T21:34:04.060Z,3.10
2022-10-23T21:36:34.237Z,3.43
2022-10-23T21:39:06.573Z,3.43
2022-10-23T21:41:34.405Z,3.03
2022-10-23T21:44:04.114Z,3.33
2022-10-23T21:46:33.480Z,3.33
2022-10-23T21:49:01.343Z,3.47
2022-10-23T21:51:35.363Z,3.33
2022-10-23T21:54:02.232Z,3.93
2022-10-23T21:56:32.115Z,3.03
2022-10-23T21:59:01.328Z,3.27
2022-10-23T22:01:29.442Z,3.10
2022-10-23T22:03:56.635Z,3.40
2022-10-23T22:06:28.897Z,3.23
2022-10-23T22:08:59.536Z,3.47
2022-10-23T22:11:27.370Z,3.50
2022-10-23T22:13:54.696Z,3.37
2022-10-23T22:16:21.642Z,3.80
2022-10-23T22:18:48.699Z,3.30
2022-10-23T22:21:21.022Z,3.40
2022-10-23T22:23:51.616Z,3.20
2022-10-23T22:26:18.375Z,3.80
2022-10-23T22:28:45.086Z,3.90
2022-10-23T22:31:17.528Z,4.43
2022-10-23T22:33:44.577Z,3.77
2022-10-23T22:36:11.975Z,4.47
2022-10-23T22:38:39.262Z,5.27
2022-10-23T22:41:06.384Z,5.50
2022-10-23T22:43:33.194Z,4.77
2022-10-23T22:46:14.805Z,6.00
2022-10-23T22:48:42.306Z,6.47
2022-10-23T22:51:14.609Z,6.00
2022-10-23T22:53:42.271Z,6.17
2022-10-23T22:56:11.188Z,6.20
2022-10-23T22:58:38.135Z,6.43
2022-10-23T23:01:12.535Z,5.90
2022-10-23T23:03:39.363Z,4.83
2022-10-23T23:06:07.610Z,4.93
2022-10-23T23:08:35.581Z,4.90
2022-10-23T23:11:02.869Z,5.07
2022-10-23T23:13:29.694Z,3.83
2022-10-23T23:15:56.523Z,4.30
2022-10-23T23:18:23.773Z,3.63
2022-10-23T23:20:50.576Z,4.30
2022-10-23T23:23:18.199Z,4.03
2022-10-23T23:25:49.717Z,4.20
2022-10-23T23:28:19.743Z,4.00
2022-10-23T23:30:47.293Z,4.23
2022-10-23T23:33:16.160Z,4.40
2022-10-23T23:35:44.939Z,4.20
2022-10-23T23:38:13.035Z,3.60
2022-10-23T23:40:40.471Z,3.50
2022-10-23T23:43:07.223Z,3.33
2022-10-23T23:45:34.208Z,3.80
2022-10-23T23:48:00.944Z,3.50
2022-10-23T23:50:28.121Z,3.67
2022-10-23T23:52:54.863Z,3.73
2022-10-23T23:55:21.780Z,3.70
2022-10-23T23:57:48.522Z,3.83
